West Bloomfield, MI (48322)

01:03:EDT den 01. november 2014 (GMT -0400)
Shenandoah Golf Estates | Change Station
CLOSE
Current Station
Personlig værstasjon
Location: West Bloomfield, MI
Høyde over havet: 994 ft
Nearby Weather Stations

H.o.h 994 ft 42.56 °N, 83.39 °W | Updated 6 seconds ago

Overskyet
Overskyet
33.9 °F
Feels Like 30 °F
N
4.0
Vind Variabel Vind from ØSØ
Gusts 9.0 mph

I dag
High -- | Low -- °F
--% Chance of Precip.
I går
High -- | Low -- °F
Precip. -- tommer
8:07 AM 6:26 PM
Trekvart økende, 62% visible
Lufttrykk 30.14 tommer
Sikt 4.0 eng. mil
Skyet Sporadisk skyet 1400 ft
Overskyet 1900 ft
Nedkjølingseffekt 30 °F
Duggpunkt 31 °F
Fuktighet 88%
Regn 0.31 tommer
Snødybde Not available.
UV 0 av 12
Pollen .10 av 12
Luftkvalitet Not available.
Flu Activity Not available.
METAR KPTK 010353Z 35018G24KT 4SM -SN SCT014 OVC019 01/M01 A3011 RMK AO2 PK WND 36032/0327 SLP204 LAST AUGMENTED OBS NEXT 10Z P0000 T00111011

More Conditions Fewer Conditions

Lufttrykk 30.14 tommer
Sikt 4.0 eng. mil
Skyet Sporadisk skyet 1400 ft
Overskyet 1900 ft
Nedkjølingseffekt 30 °F
Duggpunkt 31 °F
Fuktighet 88%
Regn 0.31 tommer
Snødybde Not available.
UV 0 av 12
Pollen .10 av 12
Luftkvalitet Not available.
Flu Activity Not available.
METAR KPTK 010353Z 35018G24KT 4SM -SN SCT014 OVC019 01/M01 A3011 RMK AO2 PK WND 36032/0327 SLP204 LAST AUGMENTED OBS NEXT 10Z P0000 T00111011

More Conditions Fewer Conditions

10-Day Weather Forecast

Almanac

Astronomi

Nov. 01, 2014 Oppgang Nedgang
Virkelig tid
Tussmørke
Nautisk skumring
Astronomisk skumring
Månen
Lengde av synlig lys
Dagens lengde
Tomorrow will be .
, % of the Moon is Illuminated

Dagens maks og min

State Highs State Lows

Community

WunderPhotos

Upload Photos

1,766,857 photos uploaded!

WunderBlogs® & News

Nearby

Luftkvalitet

  Luftkvalitet AQ Indeks Forurensing
Not available.

Snødybde

Stasjon Depth Høyde over havet

Earthquake Activity

By Distance Mag. Time & Date
Minimum magnitude displayed is 2.5.

Coastal Water Temperatures

Sted Temperatur

Nearby Weather Stations